Time;durP1;ratioP1;P1;durP2;ratioP2;P2;SDS_P1;SDS_P2;PMS_P1;PMS_P2;Temp;Humidity;BMP_temperature;BMP_pressure;BME280_temperature;BME280_humidity;BME280_pressure;Samples;Min_cycle;Max_cycle;Signal;HPM_P1;HPM_P2
2023/05/05 00:02:13;;;;;;;12.73;6.90;;;10.30;99.90;;;;;;7613920;19;20029;-81
2023/05/05 00:04:58;;;;;;;14.30;7.65;;;10.20;99.90;;;;;;7621514;19;20017;-82
2023/05/05 00:07:44;;;;;;;;;;;;;;;;;;;;;
2023/05/05 00:10:35;;;;;;;13.77;7.38;;;10.20;99.90;;;;;;7610377;19;20016;-80
2023/05/05 00:13:13;;;;;;;13.18;7.22;;;10.00;99.90;;;;;;7620210;19;22221;-80
2023/05/05 00:15:57;;;;;;;15.60;7.45;;;9.80;99.90;;;;;;7621790;19;20468;-80
2023/05/05 00:18:38;;;;;;;15.93;7.60;;;9.80;99.90;;;;;;7604527;19;20013;-80
2023/05/05 00:21:16;;;;;;;11.65;7.35;;;9.80;99.90;;;;;;7616648;19;20086;-80
2023/05/05 00:23:58;;;;;;;15.43;6.80;;;9.70;99.90;;;;;;7617269;19;20606;-82
2023/05/05 00:26:47;;;;;;;9.73;7.03;;;9.70;99.90;;;;;;7614676;19;20015;-80
2023/05/05 00:29:20;;;;;;;13.17;6.93;;;9.70;99.90;;;;;;7617574;19;20014;-81
2023/05/05 00:31:56;;;;;;;18.80;6.85;;;9.70;99.90;;;;;;7615118;19;20034;-79
2023/05/05 00:34:29;;;;;;;13.63;7.20;;;9.70;99.90;;;;;;7611120;19;20583;-82
2023/05/05 00:37:02;;;;;;;14.85;7.38;;;9.60;99.90;;;;;;7610759;19;20026;-82
2023/05/05 00:39:38;;;;;;;11.00;6.97;;;9.70;99.90;;;;;;7616459;19;20488;-82
2023/05/05 00:42:11;;;;;;;15.98;7.40;;;9.70;99.90;;;;;;7609939;19;20278;-80
2023/05/05 00:44:44;;;;;;;16.13;7.40;;;9.60;99.90;;;;;;7616283;19;20489;-81
2023/05/05 00:47:18;;;;;;;;;;;9.60;99.90;;;;;;7610167;19;20627;-81
2023/05/05 00:49:50;;;;;;;11.40;8.13;;;9.50;99.90;;;;;;7617163;19;19929;-81
2023/05/05 00:52:23;;;;;;;13.95;7.78;;;9.40;99.90;;;;;;7606854;19;20026;-79
2023/05/05 00:54:56;;;;;;;16.38;8.40;;;9.40;99.90;;;;;;7607219;19;20020;-83
2023/05/05 00:57:29;;;;;;;12.50;7.43;;;9.50;99.90;;;;;;7619300;19;20105;-81
2023/05/05 01:00:21;;;;;;;10.95;7.82;;;9.40;99.90;;;;;;7617591;19;20094;-79
2023/05/05 01:03:04;;;;;;;12.02;7.30;;;9.40;99.90;;;;;;7620050;19;20010;-80
2023/05/05 01:06:08;;;;;;;15.15;7.80;;;9.40;99.90;;;;;;7621917;19;20122;-80
2023/05/05 01:08:54;;;;;;;16.52;7.38;;;9.30;99.90;;;;;;7615806;19;20018;-79
2023/05/05 01:11:38;;;;;;;14.80;8.60;;;9.40;99.90;;;;;;7611829;19;20967;-80
2023/05/05 01:14:23;;;;;;;15.55;8.48;;;9.30;99.90;;;;;;7623195;19;20029;-79
2023/05/05 01:17:03;;;;;;;11.18;7.72;;;9.30;99.90;;;;;;7620591;19;20035;-78
2023/05/05 01:19:59;;;;;;;13.77;7.63;;;9.30;99.90;;;;;;7625894;19;20046;-81
2023/05/05 01:22:43;;;;;;;12.68;6.80;;;9.30;99.90;;;;;;7624478;19;20014;-78
2023/05/05 01:25:34;;;;;;;;;;;9.30;99.90;;;;;;7627586;19;20008;-81
2023/05/05 01:28:44;;;;;;;14.35;7.53;;;9.20;99.90;;;;;;7634507;19;19982;-79
2023/05/05 01:31:41;;;;;;;14.32;8.95;;;9.20;99.90;;;;;;7654974;19;20262;-82
2023/05/05 01:34:15;;;;;;;13.70;7.68;;;9.20;99.90;;;;;;7647352;19;20022;-81
2023/05/05 01:36:55;;;;;;;16.45;8.52;;;9.20;99.90;;;;;;7650073;19;20015;-81
2023/05/05 01:39:32;;;;;;;13.77;8.55;;;9.20;99.90;;;;;;7620431;19;20015;-83
2023/05/05 01:42:13;;;;;;;12.85;8.40;;;9.10;99.90;;;;;;7617014;19;20022;-81
2023/05/05 01:44:47;;;;;;;13.95;7.97;;;9.20;99.90;;;;;;7618640;19;20055;-80
2023/05/05 01:47:22;;;;;;;11.98;7.60;;;9.10;99.90;;;;;;7615890;19;20017;-82
2023/05/05 01:50:00;;;;;;;17.95;7.93;;;9.10;99.90;;;;;;7599836;19;20024;-80
2023/05/05 01:52:36;;;;;;;13.25;7.45;;;9.10;99.90;;;;;;7619890;19;20035;-80
2023/05/05 01:55:09;;;;;;;15.63;8.00;;;9.10;99.90;;;;;;7601367;19;20017;-80
2023/05/05 01:57:46;;;;;;;16.05;7.88;;;9.00;99.90;;;;;;7582176;19;20060;-79
2023/05/05 02:00:20;;;;;;;12.73;8.15;;;9.10;99.90;;;;;;7581367;19;20018;-80
2023/05/05 02:02:56;;;;;;;10.27;7.32;;;9.00;99.90;;;;;;7590331;19;20423;-80
2023/05/05 02:05:30;;;;;;;13.02;7.78;;;9.00;99.90;;;;;;7583221;19;20142;-79
2023/05/05 02:08:04;;;;;;;16.27;8.55;;;9.00;99.90;;;;;;7596105;19;20018;-78
2023/05/05 02:10:42;;;;;;;16.75;8.20;;;9.00;99.90;;;;;;7580089;19;20048;-79
2023/05/05 02:13:18;;;;;;;12.57;8.05;;;8.90;99.90;;;;;;7592611;19;20018;-81
2023/05/05 02:15:52;;;;;;;14.90;8.48;;;8.90;99.90;;;;;;7605420;19;20010;-80
2023/05/05 02:18:27;;;;;;;14.40;8.55;;;8.90;99.90;;;;;;7590213;19;20572;-79
2023/05/05 02:20:59;;;;;;;11.18;7.75;;;8.90;99.90;;;;;;7594101;19;20639;-79
2023/05/05 02:23:32;;;;;;;10.68;7.60;;;8.90;99.90;;;;;;7577715;19;20014;-81
2023/05/05 02:26:11;;;;;;;15.18;7.72;;;8.90;99.90;;;;;;7600001;19;20053;-80
2023/05/05 02:28:51;;;;;;;16.23;8.30;;;8.90;99.90;;;;;;7606134;19;20965;-83
2023/05/05 02:31:27;;;;;;;14.18;8.70;;;9.00;99.90;;;;;;7599930;19;20023;-83
2023/05/05 02:34:03;;;;;;;17.08;8.38;;;9.10;99.90;;;;;;7603636;19;20944;-78
2023/05/05 02:36:41;;;;;;;14.23;8.23;;;9.10;99.90;;;;;;7600032;19;20034;-78
2023/05/05 02:39:24;;;;;;;13.63;8.07;;;9.00;99.90;;;;;;7593612;19;20042;-82
2023/05/05 02:42:01;;;;;;;12.52;8.35;;;8.90;99.90;;;;;;7590016;19;20014;-79
2023/05/05 02:44:37;;;;;;;15.55;8.25;;;8.80;99.90;;;;;;7591276;19;20019;-80
2023/05/05 02:47:09;;;;;;;12.32;7.85;;;8.70;99.90;;;;;;7593862;19;20019;-78
2023/05/05 02:49:42;;;;;;;13.27;8.57;;;8.80;99.90;;;;;;7596237;19;20010;-82
2023/05/05 02:52:14;;;;;;;11.75;7.78;;;8.80;99.90;;;;;;7598790;19;20011;-79
2023/05/05 02:54:48;;;;;;;13.30;8.73;;;8.90;99.90;;;;;;7597480;19;20031;-80
2023/05/05 02:57:33;;;;;;;12.07;8.18;;;8.90;99.90;;;;;;7601974;19;20090;-81
2023/05/05 03:00:13;;;;;;;12.63;8.73;;;8.80;99.90;;;;;;7609161;19;20044;-80
2023/05/05 03:03:19;;;;;;;11.48;7.40;;;8.90;99.90;;;;;;7624099;19;20015;-80
2023/05/05 03:06:12;;;;;;;13.45;8.50;;;8.80;99.90;;;;;;7595777;19;20506;-80
2023/05/05 03:09:11;;;;;;;16.27;8.07;;;8.80;99.90;;;;;;7586152;19;20018;-78
2023/05/05 03:12:00;;;;;;;11.52;8.48;;;8.80;99.90;;;;;;7588915;19;20018;-81
2023/05/05 03:14:40;;;;;;;14.93;8.25;;;8.80;99.90;;;;;;7603194;19;20019;-79
2023/05/05 03:17:17;;;;;;;12.45;8.25;;;8.90;99.90;;;;;;7614982;19;20029;-81
2023/05/05 03:19:50;;;;;;;11.38;7.80;;;8.90;99.90;;;;;;7614836;19;20098;-82
2023/05/05 03:22:26;;;;;;;11.63;8.52;;;9.00;99.90;;;;;;7596387;19;20032;-80
2023/05/05 03:25:00;;;;;;;12.27;7.80;;;9.00;99.90;;;;;;7605376;19;20128;-82
2023/05/05 03:27:32;;;;;;;15.68;8.30;;;8.90;99.90;;;;;;7597369;19;21495;-82
2023/05/05 03:30:05;;;;;;;11.23;8.20;;;8.90;99.90;;;;;;7593514;19;20049;-78
2023/05/05 03:32:42;;;;;;;13.98;7.82;;;9.00;99.90;;;;;;7598436;19;20018;-83
2023/05/05 03:35:15;;;;;;;11.57;8.05;;;8.90;99.90;;;;;;7609853;19;20018;-81
2023/05/05 03:37:47;;;;;;;14.63;7.72;;;9.00;99.90;;;;;;7582268;19;21158;-82
2023/05/05 03:40:27;;;;;;;11.57;7.65;;;8.90;99.90;;;;;;7586983;19;20017;-79
2023/05/05 03:43:15;;;;;;;12.35;8.45;;;9.00;99.90;;;;;;7600445;19;20024;-79
2023/05/05 03:45:57;;;;;;;11.82;7.90;;;9.00;99.90;;;;;;7613640;19;20018;-83
2023/05/05 03:48:31;;;;;;;12.73;8.10;;;9.10;99.90;;;;;;7592187;19;20056;-79
2023/05/05 03:51:03;;;;;;;10.50;7.55;;;9.10;99.90;;;;;;7608507;19;20018;-80
2023/05/05 03:53:38;;;;;;;11.25;8.27;;;9.20;99.90;;;;;;7577378;19;20023;-80
2023/05/05 03:56:15;;;;;;;11.57;6.93;;;9.20;99.90;;;;;;7581936;19;25824;-81
2023/05/05 03:58:47;;;;;;;10.75;7.70;;;9.30;99.90;;;;;;7598606;19;20021;-80
2023/05/05 04:01:19;;;;;;;13.18;7.75;;;9.30;99.90;;;;;;7582537;19;20025;-81
2023/05/05 04:03:55;;;;;;;10.93;7.55;;;9.30;99.90;;;;;;7605568;19;20965;-81
2023/05/05 04:06:28;;;;;;;10.75;7.43;;;9.30;99.90;;;;;;7607964;19;20010;-82
2023/05/05 04:09:01;;;;;;;11.75;7.30;;;9.30;99.90;;;;;;7593091;19;20014;-78
2023/05/05 04:11:47;;;;;;;12.07;7.57;;;9.20;99.90;;;;;;7613071;19;20007;-80
2023/05/05 04:14:23;;;;;;;8.93;7.10;;;9.30;99.90;;;;;;7589808;19;20015;-81
2023/05/05 04:16:57;;;;;;;12.88;7.35;;;9.30;99.90;;;;;;7576184;19;20022;-80
2023/05/05 04:19:32;;;;;;;12.83;8.23;;;9.40;99.90;;;;;;7584011;19;20020;-79
2023/05/05 04:22:06;;;;;;;13.77;7.90;;;9.30;99.90;;;;;;7557942;19;20307;-81
2023/05/05 04:24:39;;;;;;;12.07;7.90;;;9.40;99.90;;;;;;7578587;19;20018;-80
2023/05/05 04:27:11;;;;;;;9.38;7.53;;;9.50;99.90;;;;;;7552445;19;20019;-80
2023/05/05 04:29:44;;;;;;;10.60;7.20;;;9.50;99.90;;;;;;7597108;19;20025;-80
2023/05/05 04:32:17;;;;;;;8.73;7.18;;;9.50;99.90;;;;;;7580931;19;20018;-79
2023/05/05 04:34:49;;;;;;;10.02;7.25;;;9.60;99.90;;;;;;7587337;19;20014;-85
2023/05/05 04:37:22;;;;;;;13.25;7.55;;;9.60;99.90;;;;;;7599434;19;20054;-82
2023/05/05 04:39:55;;;;;;;10.70;7.60;;;9.60;99.90;;;;;;7598859;19;20120;-84
2023/05/05 04:42:27;;;;;;;14.65;8.05;;;9.60;99.90;;;;;;7574401;19;20056;-83
2023/05/05 04:45:00;;;;;;;10.10;7.73;;;9.60;99.90;;;;;;7590186;19;20396;-84
2023/05/05 04:47:37;;;;;;;;;;;9.70;99.90;;;;;;7606945;19;20014;-82
2023/05/05 04:50:10;;;;;;;11.45;6.32;;;9.80;99.90;;;;;;7590825;19;19948;-85
2023/05/05 04:52:43;;;;;;;12.20;7.43;;;9.70;99.90;;;;;;7589798;19;20024;-81
2023/05/05 04:55:15;;;;;;;12.00;7.90;;;9.80;99.90;;;;;;7534758;19;20022;-84
2023/05/05 04:57:48;;;;;;;10.98;7.35;;;9.90;99.90;;;;;;7583580;19;20018;-82
2023/05/05 05:00:20;;;;;;;11.63;6.75;;;9.90;99.90;;;;;;7587208;19;20006;-79
2023/05/05 05:02:53;;;;;;;12.10;7.43;;;10.00;99.90;;;;;;7585083;19;20015;-80
2023/05/05 05:05:25;;;;;;;9.60;6.70;;;10.00;99.90;;;;;;7576964;19;20015;-81
2023/05/05 05:07:57;;;;;;;9.13;7.00;;;10.10;99.90;;;;;;7546596;19;20022;-79
2023/05/05 05:10:34;;;;;;;13.77;7.80;;;10.10;99.90;;;;;;7524151;19;20302;-81
2023/05/05 05:13:07;;;;;;;14.07;6.97;;;10.20;99.90;;;;;;7560268;19;20028;-78
2023/05/05 05:15:43;;;;;;;11.70;6.88;;;10.40;99.90;;;;;;7590685;19;20042;-82
2023/05/05 05:18:16;;;;;;;11.50;7.28;;;10.60;99.90;;;;;;7592224;19;20010;-80
2023/05/05 05:20:51;;;;;;;8.82;6.30;;;10.90;99.90;;;;;;7594914;19;20014;-82
2023/05/05 05:23:24;;;;;;;9.90;6.32;;;11.10;99.90;;;;;;7574964;19;20027;-82
2023/05/05 05:26:16;;;;;;;9.95;6.55;;;11.40;99.90;;;;;;7569075;19;20015;-79
2023/05/05 05:28:53;;;;;;;9.75;7.03;;;11.50;99.90;;;;;;7599353;19;21138;-83
2023/05/05 05:31:26;;;;;;;9.90;6.70;;;11.60;99.90;;;;;;7570523;19;20014;-81
2023/05/05 05:33:59;;;;;;;9.23;6.53;;;11.80;99.90;;;;;;7593067;19;20061;-82
2023/05/05 05:36:32;;;;;;;14.32;7.35;;;11.90;99.90;;;;;;7580905;19;21071;-80
2023/05/05 05:39:07;;;;;;;14.68;7.03;;;11.90;99.90;;;;;;7618413;19;20034;-81
2023/05/05 05:41:39;;;;;;;13.55;7.50;;;11.90;99.90;;;;;;7617449;19;20855;-80
2023/05/05 05:44:12;;;;;;;13.05;7.68;;;12.10;99.90;;;;;;7626900;19;20015;-79
2023/05/05 05:46:45;;;;;;;14.90;7.13;;;12.20;99.90;;;;;;7623187;19;20019;-81
2023/05/05 05:49:18;;;;;;;;;;;12.30;99.90;;;;;;7607462;19;20305;-79
2023/05/05 05:51:51;;;;;;;10.77;6.88;;;12.50;99.90;;;;;;7583998;19;19918;-82
2023/05/05 05:54:45;;;;;;;11.18;6.53;;;12.60;99.90;;;;;;7586675;19;20599;-81
2023/05/05 05:57:39;;;;;;;17.55;7.32;;;12.80;99.90;;;;;;7566668;19;20015;-80
2023/05/05 06:00:14;;;;;;;13.27;6.90;;;12.90;99.90;;;;;;7588757;19;20014;-82
2023/05/05 06:02:56;;;;;;;14.85;7.43;;;13.10;99.90;;;;;;7603054;19;21228;-83
2023/05/05 06:05:33;;;;;;;14.20;7.10;;;13.30;99.90;;;;;;7592380;19;20018;-82
2023/05/05 06:08:12;;;;;;;12.05;6.38;;;13.60;99.90;;;;;;7599820;19;20010;-81
2023/05/05 06:10:50;;;;;;;11.35;6.13;;;13.80;99.90;;;;;;7592250;19;20011;-80
2023/05/05 06:13:26;;;;;;;8.30;6.10;;;14.10;99.90;;;;;;7602897;19;20018;-81
2023/05/05 06:15:59;;;;;;;12.40;6.07;;;14.50;99.90;;;;;;7624200;19;20022;-82
2023/05/05 06:18:32;;;;;;;7.43;5.82;;;14.80;99.90;;;;;;7621152;19;20037;-79
2023/05/05 06:21:05;;;;;;;8.55;5.28;;;15.10;99.90;;;;;;7601564;19;20011;-82
2023/05/05 06:23:39;;;;;;;10.07;5.85;;;15.40;99.90;;;;;;7594973;19;20015;-82
2023/05/05 06:26:12;;;;;;;7.07;5.20;;;15.60;99.90;;;;;;7611311;19;20031;-82
2023/05/05 06:28:45;;;;;;;10.68;5.38;;;15.90;99.90;;;;;;7604280;19;20018;-80
2023/05/05 06:31:17;;;;;;;8.65;5.38;;;16.10;99.90;;;;;;7596433;19;20010;-82
2023/05/05 06:33:50;;;;;;;9.68;5.47;;;16.30;99.90;;;;;;7625286;19;20110;-82
2023/05/05 06:36:22;;;;;;;9.05;5.28;;;16.40;99.90;;;;;;7618828;19;20042;-82
2023/05/05 06:38:57;;;;;;;11.02;5.38;;;16.60;99.10;;;;;;7610389;19;20637;-82
2023/05/05 06:41:29;;;;;;;17.15;12.80;;;16.80;98.80;;;;;;7605616;19;20129;-82
2023/05/05 06:44:01;;;;;;;10.18;5.68;;;16.90;97.10;;;;;;7619086;19;20788;-79
2023/05/05 06:46:36;;;;;;;9.82;5.03;;;17.00;95.50;;;;;;7613544;19;20677;-81
2023/05/05 06:49:09;;;;;;;6.22;4.40;;;17.20;95.20;;;;;;7612736;19;20437;-80
2023/05/05 06:51:41;;;;;;;7.20;5.00;;;17.40;95.30;;;;;;7604071;19;20015;-81
2023/05/05 06:54:14;;;;;;;6.35;4.28;;;17.50;92.30;;;;;;7619576;19;20042;-85
2023/05/05 06:56:46;;;;;;;8.30;4.63;;;17.60;91.80;;;;;;7606969;19;20062;-80
2023/05/05 06:59:27;;;;;;;8.00;4.97;;;17.70;91.70;;;;;;7607637;19;20018;-80
2023/05/05 07:02:08;;;;;;;6.78;4.57;;;17.80;91.80;;;;;;7594511;19;21122;-83
2023/05/05 07:04:43;;;;;;;7.82;4.45;;;17.80;91.50;;;;;;7609804;19;20105;-83
2023/05/05 07:07:27;;;;;;;6.82;4.65;;;17.80;91.60;;;;;;7603008;19;20501;-81
2023/05/05 07:14:31;;;;;;;5.85;4.35;;;17.80;90.60;;;;;;7573518;19;20436;-84
2023/05/05 07:17:11;;;;;;;6.60;4.68;;;17.90;90.70;;;;;;7597039;19;20381;-83
2023/05/05 07:20:21;;;;;;;6.10;4.10;;;17.80;89.60;;;;;;7593065;19;20018;-77
2023/05/05 07:22:53;;;;;;;6.57;4.47;;;17.70;90.60;;;;;;7562937;19;20011;-77
2023/05/05 07:25:25;;;;;;;7.78;4.55;;;17.60;90.10;;;;;;7595227;19;20960;-79
2023/05/05 07:27:58;;;;;;;6.30;4.57;;;17.60;90.90;;;;;;7584461;19;20007;-81
2023/05/05 07:30:30;;;;;;;6.75;4.85;;;17.60;90.70;;;;;;7599908;19;22521;-79
2023/05/05 07:33:03;;;;;;;8.82;4.90;;;17.60;91.60;;;;;;7601454;19;20025;-79
2023/05/05 07:35:35;;;;;;;9.85;4.45;;;17.70;91.00;;;;;;7600875;19;20025;-80
2023/05/05 07:38:07;;;;;;;5.25;4.30;;;17.80;90.10;;;;;;7604293;19;20015;-79
2023/05/05 07:40:41;;;;;;;10.13;4.30;;;18.00;90.40;;;;;;7581567;19;21530;-80
2023/05/05 07:43:14;;;;;;;5.22;4.55;;;18.20;89.40;;;;;;7576770;19;20019;-80
2023/05/05 07:45:52;;;;;;;8.57;4.47;;;18.30;87.90;;;;;;7581582;19;20130;-81
2023/05/05 07:52:12;;;;;;;10.27;4.70;;;18.50;86.90;;;;;;7601735;19;20018;-81
2023/05/05 07:55:23;;;;;;;8.53;5.17;;;18.60;86.70;;;;;;7608410;19;20029;-81
2023/05/05 07:58:20;;;;;;;6.47;4.75;;;18.80;86.60;;;;;;7623755;19;20314;-81
2023/05/05 08:01:20;;;;;;;12.10;4.40;;;18.90;88.00;;;;;;7619806;19;20026;-82
2023/05/05 08:04:10;;;;;;;9.73;4.80;;;19.10;82.30;;;;;;7600948;19;20010;-84
2023/05/05 08:06:54;;;;;;;;;;;19.20;83.10;;;;;;7613487;19;20058;-81
2023/05/05 08:09:41;;;;;;;6.88;4.32;;;19.20;81.30;;;;;;7620802;19;19946;-81
2023/05/05 08:12:20;;;;;;;11.38;5.47;;;19.40;81.40;;;;;;7626317;19;20532;-83
2023/05/05 08:15:02;;;;;;;11.82;5.50;;;19.50;79.90;;;;;;7628385;19;20019;-82
2023/05/05 08:17:47;;;;;;;6.93;4.85;;;19.50;79.70;;;;;;7603513;19;21120;-81
2023/05/05 08:20:42;;;;;;;10.45;5.45;;;19.70;80.20;;;;;;7606453;19;20493;-80
2023/05/05 08:23:21;;;;;;;6.72;5.18;;;19.80;80.10;;;;;;7621969;19;20062;-82
2023/05/05 08:26:05;;;;;;;9.65;4.55;;;20.00;77.80;;;;;;7612885;19;20022;-81
2023/05/05 08:29:30;;;;;;;12.05;4.50;;;20.10;77.50;;;;;;7616444;19;20014;-85
2023/05/05 08:32:41;;;;;;;9.32;4.57;;;20.20;77.30;;;;;;7597385;19;20017;-78
2023/05/05 08:35:27;;;;;;;13.13;4.75;;;20.30;75.60;;;;;;7592885;19;20097;-78
2023/05/05 08:38:05;;;;;;;20.02;5.00;;;20.40;74.50;;;;;;7589028;19;20070;-78
2023/05/05 08:41:09;;;;;;;8.52;5.13;;;20.40;74.50;;;;;;7591695;19;20052;-79
2023/05/05 08:43:49;;;;;;;8.27;4.60;;;20.40;74.80;;;;;;7593651;19;20014;-77
2023/05/05 08:46:41;;;;;;;11.45;4.78;;;20.50;75.30;;;;;;7574168;19;20035;-81
2023/05/05 08:49:26;;;;;;;11.00;5.63;;;20.60;73.70;;;;;;7583280;19;20034;-80
2023/05/05 08:52:08;;;;;;;6.55;4.97;;;20.50;72.10;;;;;;7582399;19;20044;-78
2023/05/05 08:54:55;;;;;;;9.05;4.07;;;20.50;73.20;;;;;;7595597;19;20084;-77
2023/05/05 08:57:44;;;;;;;7.07;4.53;;;20.70;73.30;;;;;;7590852;19;20014;-80
2023/05/05 09:00:33;;;;;;;5.70;4.38;;;20.80;71.60;;;;;;7595684;19;20062;-77
2023/05/05 09:03:18;;;;;;;9.30;5.22;;;20.70;73.80;;;;;;7565704;19;20018;-81
2023/05/05 09:05:51;;;;;;;7.88;4.82;;;20.70;73.10;;;;;;7580549;19;20025;-79
2023/05/05 09:08:35;;;;;;;15.80;6.30;;;20.90;73.40;;;;;;7599891;19;21139;-77
2023/05/05 09:11:13;;;;;;;10.85;5.07;;;21.00;73.40;;;;;;7568141;19;20014;-79
2023/05/05 09:13:46;;;;;;;9.18;5.13;;;21.10;72.80;;;;;;7581576;19;20063;-77
2023/05/05 09:16:18;;;;;;;8.10;4.55;;;21.10;70.10;;;;;;7575005;19;20023;-78
2023/05/05 09:19:02;;;;;;;6.78;4.32;;;21.10;71.80;;;;;;7572878;19;20014;-80
2023/05/05 09:21:37;;;;;;;5.63;4.05;;;21.20;71.60;;;;;;7596480;19;20488;-80
2023/05/05 09:24:14;;;;;;;6.40;4.10;;;21.10;71.10;;;;;;7593093;19;20018;-79
2023/05/05 09:26:48;;;;;;;6.65;4.78;;;21.20;71.70;;;;;;7578765;19;20734;-80
2023/05/05 09:29:25;;;;;;;9.82;5.05;;;21.20;71.20;;;;;;7580663;19;20030;-78
2023/05/05 09:32:07;;;;;;;10.40;5.30;;;21.30;69.80;;;;;;7602723;19;20021;-80
2023/05/05 09:34:44;;;;;;;5.72;4.50;;;21.40;69.30;;;;;;7581321;19;20038;-79
2023/05/05 09:37:40;;;;;;;8.00;4.88;;;21.60;69.90;;;;;;7586189;19;20837;-81
2023/05/05 09:40:14;;;;;;;8.98;5.90;;;21.70;68.40;;;;;;7623561;19;20018;-80
2023/05/05 09:43:00;;;;;;;7.63;4.63;;;21.70;67.50;;;;;;7629861;19;21994;-81
2023/05/05 09:45:32;;;;;;;7.38;4.90;;;21.90;68.90;;;;;;7618103;19;20017;-80
2023/05/05 09:48:07;;;;;;;5.93;4.45;;;22.00;68.10;;;;;;7613649;19;20018;-77
2023/05/05 09:50:43;;;;;;;9.45;5.10;;;22.10;68.70;;;;;;7589728;19;20015;-78
2023/05/05 09:53:16;;;;;;;9.35;4.60;;;22.20;67.40;;;;;;7586909;19;20018;-80
2023/05/05 09:55:58;;;;;;;7.97;4.55;;;22.00;65.60;;;;;;7546337;19;20014;-80
2023/05/05 09:58:30;;;;;;;11.27;5.30;;;22.10;67.20;;;;;;7605104;19;20014;-77
2023/05/05 10:01:03;;;;;;;7.32;4.90;;;22.00;65.80;;;;;;7600315;19;20070;-79
2023/05/05 10:03:50;;;;;;;14.13;5.18;;;22.10;65.90;;;;;;7597849;19;20011;-80
2023/05/05 10:06:40;;;;;;;6.50;4.28;;;22.20;65.80;;;;;;7605267;19;20019;-80
2023/05/05 10:09:13;;;;;;;8.18;4.88;;;22.50;65.80;;;;;;7595621;19;20015;-81
2023/05/05 10:14:54;;;;;;;8.35;4.70;;;22.60;65.20;;;;;;7598613;19;19929;-82
2023/05/05 10:17:30;;;;;;;8.73;4.55;;;22.70;65.00;;;;;;7585557;19;20018;-82
2023/05/05 10:20:12;;;;;;;6.50;4.20;;;22.80;65.70;;;;;;7587847;19;20025;-82
2023/05/05 10:22:56;;;;;;;6.88;4.68;;;23.00;65.00;;;;;;7607556;19;20575;-80
2023/05/05 10:25:50;;;;;;;7.22;4.85;;;23.10;64.60;;;;;;7606077;19;20242;-81
2023/05/05 10:28:54;;;;;;;7.28;4.57;;;23.20;64.40;;;;;;7604378;19;20513;-78
2023/05/05 10:31:51;;;;;;;7.35;4.35;;;23.20;62.30;;;;;;7591819;19;20014;-80
2023/05/05 10:34:34;;;;;;;7.38;4.60;;;23.30;61.60;;;;;;7595583;19;20023;-79
2023/05/05 10:37:07;;;;;;;7.10;4.30;;;23.20;61.40;;;;;;7609444;19;20027;-80
2023/05/05 10:39:39;;;;;;;4.87;4.07;;;23.50;62.70;;;;;;7612038;19;20018;-79
2023/05/05 10:42:13;;;;;;;8.20;3.92;;;23.50;61.70;;;;;;7607958;19;20288;-79
2023/05/05 10:44:47;;;;;;;8.45;3.92;;;23.40;62.10;;;;;;7608441;19;20022;-78
2023/05/05 10:47:21;;;;;;;5.47;4.03;;;23.30;62.70;;;;;;7607948;19;20011;-79
2023/05/05 10:50:00;;;;;;;;;;;23.30;63.50;;;;;;7619249;19;20015;-80
2023/05/05 10:52:36;;;;;;;7.47;4.00;;;23.50;62.90;;;;;;7611350;19;19935;-80
2023/05/05 10:55:21;;;;;;;7.97;3.80;;;23.70;60.30;;;;;;7621112;19;20086;-80
2023/05/05 10:57:54;;;;;;;7.35;3.35;;;;;;;;;;7626601;19;20026;-80
2023/05/05 11:00:35;;;;;;;;;;;23.80;59.00;;;;;;7620914;19;20042;-81
2023/05/05 11:03:17;;;;;;;7.65;3.70;;;;;;;;;;7614199;19;19929;-80
2023/05/05 11:06:06;;;;;;;8.57;4.60;;;24.50;60.40;;;;;;7605661;19;20014;-80
2023/05/05 11:08:41;;;;;;;6.25;4.10;;;25.00;57.50;;;;;;7604568;19;20015;-80
2023/05/05 11:11:13;;;;;;;5.00;3.42;;;24.70;58.40;;;;;;7593979;19;20006;-78
2023/05/05 11:13:46;;;;;;;6.85;3.75;;;24.40;57.40;;;;;;7603292;19;20042;-80
2023/05/05 11:16:54;;;;;;;5.50;3.63;;;24.10;57.70;;;;;;7597512;19;20015;-79
2023/05/05 11:19:42;;;;;;;8.43;3.90;;;23.90;58.60;;;;;;7619874;19;20011;-81
2023/05/05 11:22:22;;;;;;;5.18;3.47;;;23.70;59.10;;;;;;7614934;19;21085;-79
2023/05/05 11:24:55;;;;;;;10.15;3.63;;;23.90;59.80;;;;;;7612397;19;20014;-79
2023/05/05 11:28:04;;;;;;;5.67;4.33;;;24.60;57.50;;;;;;7613321;19;20062;-79
2023/05/05 11:30:57;;;;;;;6.95;4.30;;;25.20;57.00;;;;;;7618488;19;20504;-81
2023/05/05 11:33:31;;;;;;;7.95;4.03;;;25.90;55.90;;;;;;7622581;19;20071;-80
2023/05/05 11:36:08;;;;;;;7.25;4.50;;;26.40;55.60;;;;;;7616812;19;20026;-81
2023/05/05 11:38:46;;;;;;;4.75;3.90;;;26.40;55.70;;;;;;7608139;19;20035;-77
2023/05/05 11:41:33;;;;;;;8.18;4.03;;;26.30;55.70;;;;;;7603620;19;20088;-80
2023/05/05 11:44:19;;;;;;;5.70;3.88;;;26.10;55.60;;;;;;7593548;19;22397;-80
2023/05/05 11:46:51;;;;;;;4.85;4.00;;;25.80;55.50;;;;;;7617588;19;20014;-79
2023/05/05 11:49:28;;;;;;;5.47;3.88;;;25.70;56.20;;;;;;7622902;19;20036;-79
2023/05/05 11:52:04;;;;;;;9.43;4.50;;;25.70;56.40;;;;;;7615495;19;20017;-79
2023/05/05 11:54:49;;;;;;;5.97;4.00;;;25.90;55.90;;;;;;7613938;19;20740;-78
2023/05/05 11:57:27;;;;;;;9.60;4.38;;;26.30;56.90;;;;;;7615162;19;20110;-81
2023/05/05 12:00:01;;;;;;;7.90;4.57;;;26.30;55.20;;;;;;7606984;19;20148;-78
2023/05/05 12:02:37;;;;;;;5.03;4.38;;;26.70;55.00;;;;;;7610621;19;20025;-78
2023/05/05 12:05:09;;;;;;;5.20;4.20;;;27.30;55.50;;;;;;7629462;19;20014;-79
2023/05/05 12:07:42;;;;;;;13.70;6.88;;;27.50;54.30;;;;;;7618136;19;20010;-79
2023/05/05 12:10:21;;;;;;;8.30;6.80;;;26.90;54.90;;;;;;7618935;19;20026;-81
2023/05/05 12:12:54;;;;;;;9.07;5.82;;;26.40;56.50;;;;;;7646810;19;20031;-85
2023/05/05 12:15:38;;;;;;;8.00;6.72;;;26.40;58.00;;;;;;7655361;19;20011;-85
2023/05/05 12:18:34;;;;;;;10.93;7.20;;;26.40;57.20;;;;;;7649467;19;19997;-84
2023/05/05 12:21:37;;;;;;;11.63;7.05;;;25.90;57.40;;;;;;7650892;19;20007;-86
2023/05/05 12:24:22;;;;;;;11.93;6.68;;;25.80;58.30;;;;;;7660588;19;20018;-85
2023/05/05 12:28:06;;;;;;;8.85;6.20;;;25.90;57.80;;;;;;7652408;19;20038;-83
2023/05/05 12:30:56;;;;;;;7.88;6.85;;;25.80;59.00;;;;;;7655100;19;20014;-83
2023/05/05 12:33:41;;;;;;;8.45;6.78;;;25.80;57.40;;;;;;7663032;19;20022;-84
2023/05/05 12:36:36;;;;;;;5.93;5.32;;;26.00;58.10;;;;;;7671292;19;20076;-83
2023/05/05 12:39:49;;;;;;;11.90;6.18;;;26.20;56.80;;;;;;7660369;19;20062;-84
2023/05/05 12:46:28;;;;;;;11.40;6.28;;;25.60;59.00;;;;;;7628801;19;20027;-81
2023/05/05 12:49:49;;;;;;;18.17;5.97;;;25.50;57.80;;;;;;7617146;19;20014;-80
2023/05/05 12:53:00;;;;;;;8.85;6.03;;;25.50;58.50;;;;;;7617240;19;20053;-81
2023/05/05 12:55:54;;;;;;;10.57;5.70;;;25.30;58.90;;;;;;7614937;19;20018;-80
2023/05/05 12:58:48;;;;;;;8.75;5.80;;;25.30;59.10;;;;;;7618678;19;20131;-78
2023/05/05 13:01:35;;;;;;;8.65;6.25;;;25.50;59.00;;;;;;7617434;19;20025;-81
2023/05/05 13:04:32;;;;;;;12.13;5.78;;;25.70;58.40;;;;;;7614656;19;20024;-81
2023/05/05 13:07:19;;;;;;;9.35;6.13;;;26.10;58.00;;;;;;7614462;19;20018;-82
2023/05/05 13:10:10;;;;;;;9.13;5.82;;;26.40;56.60;;;;;;7613475;19;20014;-81
2023/05/05 13:13:07;;;;;;;10.93;6.45;;;26.30;56.40;;;;;;7609645;19;20029;-80
2023/05/05 13:16:00;;;;;;;8.50;6.63;;;26.60;56.10;;;;;;7613078;19;20011;-82
2023/05/05 13:18:57;;;;;;;12.48;6.93;;;26.70;55.40;;;;;;7612373;19;20370;-79
2023/05/05 13:21:35;;;;;;;8.73;6.50;;;26.70;55.20;;;;;;7619167;19;20018;-82
2023/05/05 13:24:26;;;;;;;9.32;7.13;;;27.00;56.30;;;;;;7625690;19;20054;-81
2023/05/05 13:27:28;;;;;;;9.57;7.27;;;27.00;54.10;;;;;;7610332;19;20015;-81
2023/05/05 13:30:24;;;;;;;10.25;6.28;;;27.10;54.50;;;;;;7614231;19;20090;-81
2023/05/05 13:33:01;;;;;;;8.68;6.40;;;27.00;53.80;;;;;;7624453;19;20014;-80
2023/05/05 13:35:40;;;;;;;9.88;7.22;;;26.80;53.90;;;;;;7609195;19;20040;-79
2023/05/05 13:38:23;;;;;;;9.30;5.57;;;26.80;54.70;;;;;;7608676;19;20010;-81
2023/05/05 13:40:58;;;;;;;8.35;5.78;;;26.90;56.00;;;;;;7598193;19;20018;-81
2023/05/05 13:43:50;;;;;;;11.23;6.78;;;26.90;55.90;;;;;;7619372;19;20036;-79
2023/05/05 13:46:22;;;;;;;7.68;6.68;;;26.90;53.40;;;;;;7625621;19;20090;-82
2023/05/05 13:49:08;;;;;;;9.15;7.20;;;26.70;54.20;;;;;;7621171;19;20031;-82
2023/05/05 13:52:00;;;;;;;9.10;5.25;;;26.60;53.60;;;;;;7609854;19;20568;-79
2023/05/05 13:54:57;;;;;;;10.45;5.70;;;26.40;56.10;;;;;;7605237;19;20014;-80
2023/05/05 13:57:44;;;;;;;9.70;6.07;;;26.50;55.10;;;;;;7606011;19;20052;-80
2023/05/05 14:01:02;;;;;;;6.10;5.00;;;26.50;55.60;;;;;;7600621;19;20033;-81
2023/05/05 14:03:49;;;;;;;7.38;5.80;;;27.00;54.80;;;;;;7605150;19;20086;-79
2023/05/05 14:06:34;;;;;;;8.55;6.05;;;27.20;53.30;;;;;;7602583;19;20018;-81
2023/05/05 14:09:13;;;;;;;7.10;5.32;;;27.40;52.40;;;;;;7600897;19;20061;-80
2023/05/05 14:12:05;;;;;;;12.80;5.75;;;27.40;52.90;;;;;;7586532;19;20021;-79
2023/05/05 14:14:44;;;;;;;7.15;5.75;;;27.60;51.50;;;;;;7607731;19;20022;-81